Map

Track Data

SID SEASON NUMBER BASIN SUBBASIN NAME ISO_TIME NATURE LAT LON WMO_WIND WMO_PRES WMO_AGENCY TRACK_TYPE DIST2LAND LANDFALL IFLAG USA_AGENCY USA_ATCF_ID USA_LAT USA_LON USA_RECORD USA_STATUS USA_WIND USA_PRES USA_SSHS USA_R34_NE USA_R34_SE USA_R34_SW USA_R34_NW USA_R50_NE USA_R50_SE USA_R50_SW USA_R50_NW USA_R64_NE USA_R64_SE USA_R64_SW USA_R64_NW USA_POCI USA_ROCI USA_RMW USA_EYE TOKYO_LAT TOKYO_LON TOKYO_GRADE TOKYO_WIND TOKYO_PRES TOKYO_R50_DIR TOKYO_R50_LONG TOKYO_R50_SHORT TOKYO_R30_DIR TOKYO_R30_LONG TOKYO_R30_SHORT TOKYO_LAND CMA_LAT CMA_LON CMA_CAT CMA_WIND CMA_PRES HKO_LAT HKO_LON HKO_CAT HKO_WIND HKO_PRES NEWDELHI_LAT NEWDELHI_LON NEWDELHI_GRADE NEWDELHI_WIND NEWDELHI_PRES NEWDELHI_CI NEWDELHI_DP NEWDELHI_POCI REUNION_LAT REUNION_LON REUNION_TYPE REUNION_WIND REUNION_PRES REUNION_TNUM REUNION_CI REUNION_RMW REUNION_R34_NE REUNION_R34_SE REUNION_R34_SW REUNION_R34_NW REUNION_R50_NE REUNION_R50_SE REUNION_R50_SW REUNION_R50_NW REUNION_R64_NE REUNION_R64_SE REUNION_R64_SW REUNION_R64_NW BOM_LAT BOM_LON BOM_TYPE BOM_WIND BOM_PRES BOM_TNUM BOM_CI BOM_RMW BOM_R34_NE BOM_R34_SE BOM_R34_SW BOM_R34_NW BOM_R50_NE BOM_R50_SE BOM_R50_SW BOM_R50_NW BOM_R64_NE BOM_R64_SE BOM_R64_SW BOM_R64_NW BOM_ROCI BOM_POCI BOM_EYE BOM_POS_METHOD BOM_PRES_METHOD NADI_LAT NADI_LON NADI_CAT NADI_WIND NADI_PRES WELLINGTON_LAT WELLINGTON_LON WELLINGTON_WIND WELLINGTON_PRES DS824_LAT DS824_LON DS824_STAGE DS824_WIND DS824_PRES TD9636_LAT TD9636_LON TD9636_STAGE TD9636_WIND TD9636_PRES TD9635_LAT TD9635_LON TD9635_WIND TD9635_PRES TD9635_ROCI NEUMANN_LAT NEUMANN_LON NEUMANN_CLASS NEUMANN_WIND NEUMANN_PRES MLC_LAT MLC_LON MLC_CLASS MLC_WIND MLC_PRES USA_GUST BOM_GUST BOM_GUST_PER REUNION_GUST REUNION_GUST_PER USA_SEAHGT USA_SEARAD_NE USA_SEARAD_SE USA_SEARAD_SW USA_SEARAD_NW STORM_SPEED STORM_DIR
1976026N02151 1976 8 WP MM KATHY 1976-01-26 00:00:00 TS 2.30000 150.500 main 562 561 O________OOO__ jtwc_wp WP011976 2.30000 150.500 20 -1 2.30000 150.500 TC 20 2.30000 150.500 1 20 2.30000 150.500 20 1005 120 5 54
1976026N02151 1976 8 WP MM KATHY 1976-01-26 03:00:00 TS 2.44556 150.700 main 571 571 P________PPP__ WP011976 2.44250 150.690 20 -1 2.44250 150.690 TC 20 2.45475 150.731 1 20 2.44250 150.690 20 1005 120 5 53
1976026N02151 1976 8 WP MM KATHY 1976-01-26 06:00:00 TS 2.60440 150.912 main 593 593 O________OPO__ jtwc_wp WP011976 2.60000 150.900 20 -1 2.60000 150.900 TC 20 2.61759 150.950 1 20 2.60000 150.900 20 1005 120 6 52
1976026N02151 1976 8 WP MM KATHY 1976-01-26 09:00:00 TS 2.78791 151.133 main 616 616 P________PPP__ WP011976 2.78501 151.130 20 -1 2.78501 151.130 TC 20 2.79663 151.144 1 20 2.78501 151.130 20 1004 120 6 44
1976026N02151 1976 8 WP MM KATHY 1976-01-26 12:00:00 TS 3.00000 151.300 main 640 640 O________OOO__ jtwc_wp WP011976 3.00000 151.300 20 -1 3.00000 151.300 TC 20 3.00000 151.300 1 20 3.00000 151.300 20 1004 120 5 26
1976026N02151 1976 8 WP MM KATHY 1976-01-26 15:00:00 TS 3.23997 151.354 main 663 663 P________PPP__ WP011976 3.24249 151.338 20 -1 3.24249 151.338 TC 20 3.23241 151.405 1 20 3.24249 151.338 20 1004 150 5 4
1976026N02151 1976 8 WP MM KATHY 1976-01-26 18:00:00 TS 3.49621 151.334 main 696 696 O________OPO__ jtwc_wp WP011976 3.50000 151.300 20 -1 3.50000 151.300 TC 20 3.48484 151.437 1 20 3.50000 151.300 20 1004 180 5 0
1976026N02151 1976 8 WP MM KATHY 1976-01-26 21:00:00 TS 3.74868 151.332 main 718 718 P________PPP__ WP011976 3.74996 151.317 20 -1 3.74996 151.317 TC 20 3.74486 151.376 1 20 3.74996 151.317 20 1004 180 5 345
1976026N02151 1976 8 WP MM KATHY 1976-01-27 00:00:00 TS 4.00000 151.200 main 751 751 O________OOO__ jtwc_wp WP011976 4.00000 151.200 20 -1 4.00000 151.200 TC 20 4.00000 151.200 1 20 4.00000 151.200 20 1004 180 7 315
1976026N02151 1976 8 WP MM KATHY 1976-01-27 03:00:00 TS 4.25226 150.824 main 784 784 P________PPP__ WP011976 4.25756 150.803 20 -1 4.25756 150.803 TC 20 4.23636 150.890 1 20 4.25756 150.803 20 1004 180 10 300
1976026N02151 1976 8 WP MM KATHY 1976-01-27 06:00:00 TS 4.49129 150.343 main 806 802 O________OPO__ jtwc_wp WP011976 4.50000 150.300 20 -1 4.50000 150.300 TC 20 4.46517 150.470 1 20 4.50000 150.300 20 1004 180 10 297
1976026N02151 1976 8 WP MM KATHY 1976-01-27 09:00:00 TS 4.70218 149.922 main 811 807 P________PPP__ WP011976 4.70745 149.900 20 -1 4.70745 149.900 TC 20 4.68637 149.990 1 20 4.70745 149.900 20 1004 180 9 296
1976026N02151 1976 8 WP MM KATHY 1976-01-27 12:00:00 TS 4.90588 149.506 1004 tokyo main 818 815 OO_______OOO__ jtwc_wp WP011976 4.90000 149.500 20 -1 5.00000 149.600 2 1004 0 0 0 4.90000 149.500 TC 20 4.90000 149.500 1 20 4.90000 149.500 20 1004 180 9 296
1976026N02151 1976 8 WP MM KATHY 1976-01-27 15:00:00 TS 5.10469 149.078 main 828 826 PP_______PPP__ WP011976 5.10000 149.050 25 -1 5.15253 149.218 2 1004 0 0 5.10000 149.050 TC 25 5.09484 149.091 1 23 5.10000 149.050 25 1003 180 9 295
1976026N02151 1976 8 WP MM KATHY 1976-01-27 18:00:00 TS 5.29679 148.648 1004 tokyo main 839 838 OO_______OPO__ jtwc_wp WP011976 5.30000 148.600 30 -1 5.30000 148.800 2 1004 0 0 0 5.30000 148.600 TC 30 5.28476 148.680 1 27 5.30000 148.600 30 1003 180 9 294
1976026N02151 1976 8 WP MM KATHY 1976-01-27 21:00:00 TS 5.47590 148.244 main 856 855 PP_______PPP__ WP011976 5.48491 148.215 32 -1 5.44247 148.322 2 1000 0 0 5.48491 148.215 TC 32 5.48230 148.253 1 31 5.48491 148.215 32 1002 180 9 294
1976026N02151 1976 8 WP MM KATHY 1976-01-28 00:00:00 TS 5.67727 147.809 996 tokyo main 875 874 OOOO_____OOO__ jtwc_wp WP011976 5.70000 147.800 35 0 5.60000 147.800 2 996 0 0 0 5.60000 147.700 2 38 1000 5.70000 148.100 TD 30 996 5.70000 147.800 TC 35 5.70000 147.800 2 35 5.70000 147.800 35 1002 180 11 296
1976026N02151 1976 8 WP MM KATHY 1976-01-28 03:00:00 TS 5.93828 147.288 main 896 896 PPPP_____PPP__ WP011976 5.99253 147.265 35 0 5.77742 147.272 2 993 0 0 5.91499 147.190 2 38 994 5.89508 147.520 TD 30 996 5.99253 147.265 TC 35 5.96963 147.308 2 36 5.99253 147.265 35 1000 210 12 296
1976026N02151 1976 8 WP MM KATHY 1976-01-28 06:00:00 TS 6.21268 146.725 990 tokyo main 930 930 OOOO_____OPO__ jtwc_wp WP011976 6.30000 146.700 35 0 6.00000 146.700 9 990 0 0 0 6.20000 146.600 2 38 989 6.10000 146.900 TD 30 996 6.30000 146.700 TC 35 6.25741 146.788 2 37 6.30000 146.700 35 999 240 13 295
1976026N02151 1976 8 WP MM KATHY 1976-01-28 09:00:00 TS 6.47088 146.147 main 965 965 PPPP_____PPP__ WP011976 6.56490 146.200 37 0 6.31494 146.073 9 990 0 0 6.43010 145.893 2 38 992 6.31496 146.215 TD 32 996 6.56490 146.200 TC 37 6.54148 146.248 2 38 6.56490 146.200 37 997 270 13 293
1976026N02151 1976 8 WP MM KATHY 1976-01-28 12:00:00 TS 6.70000 145.557 990 tokyo main 992 992 OOOO_____OOO__ jtwc_wp WP011976 6.80000 145.700 40 0 6.60000 145.400 9 990 0 0 0 6.60000 145.200 2 38 995 6.50000 145.500 TS 35 996 6.80000 145.700 TC 40 6.80000 145.700 2 40 6.80000 145.700 40 996 300 13 289
1976026N02151 1976 8 WP MM KATHY 1976-01-28 15:00:00 TS 6.87725 144.951 main 1024 1024 PPPP_____PPP__ WP011976 7.01496 145.157 40 0 6.75265 144.640 9 990 0 0 6.72992 144.640 2 38 995 6.63010 144.740 TS 35 996 7.01496 145.157 TC 40 6.98322 145.165 2 40 7.01496 145.157 40 996 300 12 285
1976026N02151 1976 8 WP MM KATHY 1976-01-28 18:00:00 TS 7.00603 144.389 990 tokyo main 1048 1048 OOOO_____OPO__ jtwc_wp WP011976 7.20000 144.600 40 0 6.80000 144.000 9 990 0 0 0 6.80000 144.200 2 38 995 6.70000 144.100 TS 35 996 7.20000 144.600 TC 40 7.14218 144.622 2 40 7.20000 144.600 40 996 300 10 282
1976026N02151 1976 8 WP MM KATHY 1976-01-28 21:00:00 TS 7.08526 143.933 main 1073 1073 PPPP_____PPP__ WP011976 7.34240 144.057 40 0 6.75732 143.682 9 990 0 0 6.80741 143.870 2 38 996 6.69982 143.740 TS 35 997 7.34240 144.057 TC 40 7.30506 144.068 2 40 7.34240 144.057 40 997 300 9 281
1976026N02151 1976 8 WP MM KATHY 1976-01-29 00:00:00 TS 7.17143 143.514 990 tokyo main 1097 1097 OOOO_____OOO__ jtwc_wp WP011976 7.50000 143.500 40 0 6.70000 143.500 9 990 0 0 0 6.80000 143.600 2 38 997 6.70000 143.500 TS 35 998 7.50000 143.500 TC 40 7.50000 143.500 2 40 7.50000 143.500 40 998 300 9 284
1976026N02151 1976 8 WP MM KATHY 1976-01-29 03:00:00 TS 7.28720 143.088 main 1122 1121 PPPP_____PPP__ WP011976 7.71995 142.907 40 0 6.62216 143.362 9 990 0 0 6.78229 143.367 2 43 997 6.70230 143.267 TS 35 997 7.71995 142.907 TC 40 7.74377 142.898 2 41 7.71995 142.907 40 998 330 10 291
1976026N02151 1976 8 WP MM KATHY 1976-01-29 06:00:00 TS 7.51787 142.584 990 tokyo main 1128 1128 OOOO_____OPO__ jtwc_wp WP011976 8.00000 142.300 40 0 6.80000 143.000 9 990 0 0 0 6.90000 143.000 3 48 997 6.90000 142.900 TS 35 996 8.00000 142.300 TC 40 8.02506 142.285 2 42 8.00000 142.300 40 998 360 13 299
1976026N02151 1976 8 WP MM KATHY 1976-01-29 09:00:00 TS 7.93462 141.902 main 1141 1141 PPPP_____PPP__ WP011976 8.31995 141.692 42 0 7.52580 142.039 9 990 0 0 7.24520 142.310 3 48 993 7.46771 142.210 TS 37 995 8.31995 141.692 TC 42 8.34379 141.679 2 43 8.31995 141.692 42 997 360 17 304
1976026N02151 1976 8 WP MM KATHY 1976-01-29 12:00:00 TS 8.45714 141.186 990 tokyo main 1179 1176 OOOO_____OOO__ jtwc_wp WP011976 8.70000 141.100 45 0 8.40000 141.000 9 990 0 0 0 7.80000 141.500 3 48 990 8.20000 141.400 TS 40 994 8.70000 141.100 TC 45 8.70000 141.100 2 45 8.70000 141.100 45 996 360 17 309
1976026N02151 1976 8 WP MM KATHY 1976-01-29 15:00:00 TS 8.99851 140.551 main 1215 1210 PPPP_____PPP__ WP011976 9.14245 140.528 47 0 9.01708 140.395 9 990 0 0 8.55009 140.733 3 53 987 8.91010 140.625 TS 42 992 9.14245 140.528 TC 47 9.08498 140.523 2 47 9.14245 140.528 47 994 360 16 312
1976026N02151 1976 8 WP MM KATHY 1976-01-29 18:00:00 TS 9.51501 140.011 990 tokyo main 1240 1240 OOOO_____OPO__ jtwc_wp WP011976 9.60000 140.000 50 0 9.50000 140.000 9 990 0 0 0 9.30000 140.100 3 58 985 9.50000 140.000 TS 45 990 9.60000 140.000 TC 50 9.50507 139.980 2 50 9.60000 140.000 50 993 360 13 314
1976026N02151 1976 8 WP MM KATHY 1976-01-29 21:00:00 TS 9.92095 139.595 main 1267 1267 PPPP_____PPP__ WP011976 10.0075 139.505 52 0 9.87982 139.685 9 985 0 0 9.80215 139.762 3 63 982 9.79467 139.704 TS 50 985 10.0075 139.505 TC 52 9.94760 139.498 2 52 10.0075 139.505 52 986 360 11 316
1976026N02151 1976 8 WP MM KATHY 1976-01-30 00:00:00 TS 10.2857 139.257 980 tokyo main 1298 1295 OOOO_____OOO__ jtwc_wp WP011976 10.4000 139.100 55 0 10.2000 139.400 9 980 0 0 0 10.2000 139.500 4 68 980 10.0000 139.500 STS 55 980 10.4000 139.100 TC 55 10.4000 139.100 2 55 10.4000 139.100 55 980 360 10 317
1976026N02151 1976 8 WP MM KATHY 1976-01-30 03:00:00 TS 10.6516 138.898 main 1328 1325 PPPP_____PPP__ WP011976 10.7849 138.805 60 0 10.5126 138.978 9 977 0 0 10.5777 139.028 4 72 977 10.2901 139.092 STS 60 977 10.7849 138.805 TC 60 10.8262 138.777 2 57 10.7849 138.805 60 977 360 10 321
1976026N02151 1976 8 WP MM KATHY 1976-01-30 06:00:00 TS 11.0660 138.606 975 tokyo main 1363 1359 OOOO_____OPO__ jtwc_wp WP011976 11.2000 138.600 65 1 10.9000 138.600 9 975 0 0 0 11.0000 138.600 4 77 975 10.7000 138.700 T 65 975 11.2000 138.600 TC 65 11.2621 138.542 2 60 11.2000 138.600 65 975 360 11 333
1976026N02151 1976 8 WP MM KATHY 1976-01-30 09:00:00 TS 11.5849 138.406 main 1361 1355 PPPP_____PPP__ WP011976 11.6850 138.413 65 1 11.4549 138.390 9 972 0 0 11.5624 138.390 4 77 973 11.3050 138.440 T 65 975 11.6850 138.413 TC 65 11.7169 138.387 2 62 11.6850 138.413 65 974 360 11 345
1976026N02151 1976 8 WP MM KATHY 1976-01-30 12:00:00 TS 12.1571 138.300 970 tokyo main 1364 1364 OOOO_____OOO__ jtwc_wp WP011976 12.2000 138.300 65 1 12.1000 138.300 9 970 0 0 0 12.2000 138.300 4 77 971 12.0000 138.300 T 65 975 12.2000 138.300 TC 65 12.2000 138.300 3 65 12.2000 138.300 65 973 360 12 353
1976026N02151 1976 8 WP MM KATHY 1976-01-30 15:00:00 TS 12.7196 138.255 main 1374 1374 PPPP_____PPP__ WP011976 12.6850 138.270 67 1 12.7575 138.277 9 970 0 0 12.8575 138.213 4 77 971 12.6500 138.262 T 65 975 12.6850 138.270 TC 67 12.7170 138.224 3 67 12.6850 138.270 67 973 360 11 359
1976026N02151 1976 8 WP MM KATHY 1976-01-30 18:00:00 TS 13.2946 138.274 970 tokyo main 1383 1383 OOOO_____OPO__ jtwc_wp WP011976 13.2000 138.300 70 1 13.4000 138.300 9 970 0 0 0 13.5000 138.200 4 77 971 13.3000 138.300 T 65 975 13.2000 138.300 TC 70 13.2623 138.215 3 70 13.2000 138.300 70 973 360 12 2
1976026N02151 1976 8 WP MM KATHY 1976-01-30 21:00:00 TS 13.8866 138.301 main 1396 1396 PPPP_____PPP__ WP011976 13.7850 138.320 72 1 13.9725 138.278 9 970 0 0 14.0725 138.270 4 82 971 13.9800 138.328 T 67 972 13.7850 138.320 TC 72 13.8264 138.274 3 72 13.7850 138.320 72 972 360 12 6
1976026N02151 1976 8 WP MM KATHY 1976-01-31 00:00:00 TS 14.4714 138.386 970 tokyo main 1419 1419 OOOO_____OOO__ jtwc_wp WP011976 14.4000 138.400 75 1 14.5000 138.300 9 970 0 0 0 14.6000 138.400 5 87 971 14.6000 138.400 T 70 970 14.4000 138.400 TC 75 14.4000 138.400 4 75 14.4000 138.400 75 972 360 12 10
1976026N02151 1976 8 WP MM KATHY 1976-01-31 03:00:00 TS 15.0309 138.517 main 1439 1439 PPPP_____PPP__ WP011976 15.0075 138.563 77 1 15.0149 138.405 9 967 0 0 15.1073 138.483 5 92 971 15.0799 138.505 T 70 970 15.0075 138.563 TC 77 14.9918 138.537 4 75 15.0075 138.563 77 970 360 12 17
1976026N02151 1976 8 WP MM KATHY 1976-01-31 06:00:00 TS 15.5695 138.735 965 tokyo main 1475 1475 OOOO_____OPO__ jtwc_wp WP011976 15.6000 138.800 80 1 15.5000 138.600 9 965 0 0 0 15.6000 138.700 5 97 971 15.5000 138.700 T 70 970 15.6000 138.800 TC 80 15.5868 138.743 4 75 15.6000 138.800 80 969 360 12 25
1976026N02151 1976 8 WP MM KATHY 1976-01-31 09:00:00 TS 16.0994 139.043 main 1519 1519 PPPP_____PPP__ WP011976 16.1650 139.078 77 1 15.9575 138.878 9 965 0 0 16.1151 139.175 5 92 973 15.9649 138.990 T 70 970 16.1650 139.078 TC 77 16.1634 139.028 4 75 16.1650 139.078 77 970 360 12 33
1976026N02151 1976 8 WP MM KATHY 1976-01-31 12:00:00 TS 16.6000 139.429 965 tokyo main 1576 1576 OOOO_____OOO__ jtwc_wp WP011976 16.7000 139.400 75 1 16.4000 139.200 9 965 0 0 0 16.6000 139.800 5 87 975 16.4000 139.400 T 70 970 16.7000 139.400 TC 75 16.7000 139.400 4 75 16.7000 139.400 75 971 360 12 37
1976026N02151 1976 8 WP MM KATHY 1976-01-31 15:00:00 TS 17.0738 139.806 main 1633 1633 PPPP_____PPP__ WP011976 17.2295 139.683 72 1 16.8272 139.456 9 965 0 0 17.0373 140.428 5 87 980 16.7726 139.928 T 67 970 17.2295 139.683 TC 72 17.1909 139.783 4 72 17.2295 139.683 72 972 330 12 42
1976026N02151 1976 8 WP MM KATHY 1976-01-31 18:00:00 TS 17.5053 140.280 965 tokyo main 1697 1697 OOOO_____OPO__ jtwc_wp WP011976 17.7000 140.100 70 1 17.3000 139.800 9 965 0 0 0 17.4000 141.100 5 87 985 17.1000 140.500 T 65 970 17.7000 140.100 TC 70 17.6372 140.262 4 70 17.7000 140.100 70 973 300 13 51
1976026N02151 1976 8 WP MM KATHY 1976-01-31 21:00:00 TS 17.9057 140.871 main 1772 1772 PPPP_____PPP__ WP011976 18.1098 140.752 67 1 17.9295 140.295 9 967 0 0 17.6570 141.763 5 82 987 17.3840 140.926 T 65 970 18.1098 140.752 TC 67 18.0400 140.859 4 67 18.1098 140.752 67 974 300 15 60
1976026N02151 1976 8 WP MM KATHY 1976-02-01 00:00:00 TS 18.2429 141.629 970 tokyo main 1793 1785 OOOO_____OOO__ jtwc_wp WP011976 18.4000 141.600 65 1 18.5000 141.000 9 970 0 0 0 17.9000 142.500 4 77 990 17.7000 141.500 T 65 970 18.4000 141.600 TC 65 18.4000 141.600 4 65 18.4000 141.600 65 975 300 17 71
1976026N02151 1976 8 WP MM KATHY 1976-02-01 03:00:00 TS 18.4704 142.557 main 1796 1796 PPPP_____PPP__ WP011976 18.4848 142.549 62 0 18.7948 141.911 9 972 0 0 18.2126 143.378 4 72 992 18.1207 142.475 T 62 972 18.4848 142.549 TC 62 18.7106 142.488 4 62 18.4848 142.549 62 975 270 19 76
1976026N02151 1976 8 WP MM KATHY 1976-02-01 06:00:00 TS 18.7115 143.602 975 tokyo main 1815 1813 OOOO_____OPO__ jtwc_wp WP011976 18.6000 143.600 60 0 19.0000 143.000 9 975 0 0 0 18.6000 144.300 4 68 995 18.6000 143.600 STS 60 975 18.6000 143.600 TC 60 18.9805 143.515 4 60 18.6000 143.600 60 975 240 21 72
1976026N02151 1976 8 WP MM KATHY 1976-02-01 09:00:00 TS 19.1064 144.641 main 1820 1807 PPPP_____PPP__ WP011976 19.0193 144.669 57 0 19.2761 144.119 9 975 0 0 19.0690 145.121 4 68 995 19.1068 144.608 STS 57 977 19.0193 144.669 TC 57 19.2349 144.635 4 57 19.0193 144.669 57 977 240 22 68
1976026N02151 1976 8 WP MM KATHY 1976-02-01 12:00:00 TS 19.5429 145.743 975 tokyo main 1811 1802 OOOO_____OOO__ jtwc_wp WP011976 19.5000 145.800 55 0 19.6000 145.400 9 975 0 0 0 19.6000 146.000 4 68 995 19.6000 145.600 STS 55 980 19.5000 145.800 TC 55 19.5000 145.800 2 55 19.5000 145.800 55 980 240 23 69
1976026N02151 1976 8 WP MM KATHY 1976-02-01 15:00:00 TS 19.9190 146.921 main 1810 1807 PPPP_____PPP__ WP011976 19.8146 146.993 52 0 20.0010 146.942 9 977 0 0 20.1492 147.026 4 63 995 20.0068 146.594 STS 50 982 19.8146 146.993 TC 52 19.8323 146.907 2 52 19.8146 146.993 52 982 240 24 72
1976026N02151 1976 8 WP MM KATHY 1976-02-01 18:00:00 TS 20.2823 148.136 980 tokyo main 1817 1817 OOOO_____OPO__ jtwc_wp WP011976 20.1000 148.200 50 0 20.4000 148.500 9 980 0 0 0 20.7000 148.200 3 58 995 20.4000 147.600 TS 45 985 20.1000 148.200 TC 50 20.1758 148.053 2 50 20.1000 148.200 50 985 240 24 72
1976026N02151 1976 8 WP MM KATHY 1976-02-01 21:00:00 TS 20.6665 149.303 main 1832 1832 PPPP_____PPP__ WP011976 20.4405 149.306 47 0 20.7580 149.795 9 982 0 0 21.2447 149.512 3 53 995 20.8346 148.651 TS 40 987 20.4405 149.306 TC 47 20.5065 149.247 2 47 20.4405 149.306 47 987 270 24 72
1976026N02151 1976 8 WP MM KATHY 1976-02-02 00:00:00 TS 21.0185 150.544 985 tokyo main 1865 1865 OOOO_____OOO__ jtwc_wp WP011976 20.8000 150.500 45 0 21.0000 151.000 9 985 0 0 0 21.7000 150.900 3 48 995 21.3000 149.700 TS 35 990 20.8000 150.500 TC 45 20.8000 150.500 2 45 20.8000 150.500 45 990 300 25 75
1976026N02151 1976 8 WP MM KATHY 1976-02-02 03:00:00 TS 21.3202 151.934 main 1913 1913 PPPP_____PPP__ WP011976 21.2034 151.984 40 0 21.0441 152.251 9 987 0 0 21.9925 152.199 3 43 995 21.7935 150.711 TS 30 995 21.2034 151.984 TC 40 21.0377 151.815 2 40 21.2034 151.984 40 992 300 27 79
1976026N02151 1976 8 WP MM KATHY 1976-02-02 06:00:00 TS 21.5370 153.388 990 tokyo main 1984 1984 OOOO_____OPO__ jtwc_wp WP011976 21.5000 153.500 35 0 21.0000 153.500 9 990 0 0 0 22.2000 153.600 2 38 995 22.3000 151.700 TD 25 1000 21.5000 153.500 TC 35 21.2254 153.181 2 35 21.5000 153.500 35 995 300 28 84
1976026N02151 1976 8 WP MM KATHY 1976-02-02 09:00:00 TS 21.6199 154.877 main 2071 2071 PPP______PPP__ WP011976 21.5703 154.819 30 -1 20.9982 154.713 9 995 0 0 22.4382 155.277 2 38 996 TD 21.5703 154.819 TC 30 21.3753 154.582 2 30 21.5703 154.819 30 997 270 27 87
1976026N02151 1976 8 WP MM KATHY 1976-02-02 12:00:00 TS 21.6800 156.300 1000 tokyo main 2158 2158 OOO______OOO__ jtwc_wp WP011976 21.5000 156.000 25 -1 21.0000 156.000 2 1000 0 0 0 22.6000 157.000 2 38 997 21.5000 156.000 TC 25 21.5000 156.000 1 25 21.5000 156.000 25 1000 240 29 86
1976026N02151 1976 8 WP MM KATHY 1976-02-02 15:00:00 TS 21.8211 158.004 main 2269 2269 _PP___________ WP011976 -1 21.0035 157.450 2 1002 0 0 22.6386 158.558 2 33 998 TC 1 30 88
1976026N02151 1976 8 WP MM KATHY 1976-02-02 18:00:00 TS 21.8000 159.500 1004 tokyo main 2376 _OO___________ -1 21.0000 159.000 2 1004 0 0 0 22.6000 160.000 1 29 1000 1 28 91

Digital Typhoon Data and Search

About IBTrACS Database

This database is a web-friendly format of International Best Track Archive for Climate Stewardship (IBTrACS), a global best track data archive curated by NOAA dating back to 1842.

Updated: 2021-10-21